Etusivu
METAR-TAF:

METAR-TAF

Lentoasemat :

Grants-Milan Municipal Airport

Grants, New Mexico, Yhdysvallat

Leveyspiiri: 35-09-55N, Pituuspiiri: 107-54-08W, korkeus merenpinnasta: 1988 m

Tämänhetkinen sää

Tämä raportti tehtiin 14 minuuttia sitten, kello 16.15 UTC
tyyntä
Lämpötila 26°C
Kosteus 32%
Ilmanpaine 1027 hPa
Näkyvyys: 16.1 km
selkeää

METAR: KGNT 201615Z AUTO 00000KT 10SM CLR 26/08 A3032 RMK AO2 T02550077

Aika: 10:29 (16:29 UTC)


TAF: puuttuu

Säähavainnot ja -ennusteet yli 4000 lentoasemalta (METAR- ja TAF-raportit).

Käytössä olevat sääasemat on merkitty karttaan keltaisilla ja punaisilla pisteillä.

Aseta hiiri pisteen päälle nähdäksesi sääaseman nimen.

Klikkaa sitten nähdäksesi säähavainnot ja -ennusteet.

Kartan vaihtaminen: klikkaa mustalla rastilla varustettuja vihreitä pisteitä, niin voit zoomata sisään; viivalla varustettua vihreää pistettä, niin voit zoomata ulos tai vihreitä nuolia, niin pääset viereisille kartoille.


METAR-TAF: